Time;durP1;ratioP1;P1;durP2;ratioP2;P2;SDS_P1;SDS_P2;PMS_P1;PMS_P2;Temp;Humidity;BMP_temperature;BMP_pressure;BME280_temperature;BME280_humidity;BME280_pressure;Samples;Min_cycle;Max_cycle;Signal;HPM_P1;HPM_P2
2021/03/24 00:00:53;;;;;;;23.10;12.20;;;;;;;18.91;43.91;100395.88;2049122;28;20029;-71
2021/03/24 00:01:54;;;;;;;25.70;13.10;;;;;;;18.90;43.94;100392.28;2053558;28;20031;-71
2021/03/24 00:02:58;;;;;;;23.93;11.73;;;;;;;18.91;43.98;100387.69;2056607;28;20377;-72
2021/03/24 00:03:58;;;;;;;23.25;11.98;;;;;;;18.91;44.07;100390.41;2057256;28;20034;-72
2021/03/24 00:04:59;;;;;;;28.27;12.53;;;;;;;18.91;44.06;100393.16;2057125;28;20609;-72
2021/03/24 00:05:59;;;;;;;23.00;11.30;;;;;;;18.91;43.87;100393.16;2057132;28;20019;-71
2021/03/24 00:06:59;;;;;;;24.43;11.57;;;;;;;18.90;43.85;100396.91;2057182;28;20051;-72
2021/03/24 00:08:01;;;;;;;23.53;11.23;;;;;;;18.89;43.86;100395.16;2057224;28;20497;-71
2021/03/24 00:09:06;;;;;;;19.75;10.88;;;;;;;18.90;43.91;100391.44;2057041;28;20070;-71
2021/03/24 00:10:08;;;;;;;23.83;11.60;;;;;;;18.90;43.91;100397.75;2058193;28;20034;-72
2021/03/24 00:11:11;;;;;;;22.98;11.35;;;;;;;18.90;43.94;100397.75;2056919;28;20409;-72
2021/03/24 00:12:11;;;;;;;26.95;12.40;;;;;;;18.91;43.94;100395.88;2056616;28;20019;-71
2021/03/24 00:13:12;;;;;;;22.93;11.03;;;;;;;18.90;43.93;100399.63;2049341;28;20034;-72
2021/03/24 00:14:12;;;;;;;24.87;11.93;;;;;;;18.90;43.91;100391.44;2049161;28;20023;-71
2021/03/24 00:15:13;;;;;;;25.33;11.20;;;;;;;18.89;43.87;100386.94;2057267;28;20069;-71
2021/03/24 00:16:13;;;;;;;29.13;13.13;;;;;;;18.87;43.90;100394.44;2057051;28;20031;-72
2021/03/24 00:17:14;;;;;;;20.90;10.27;;;;;;;18.88;43.93;100391.56;2057060;28;20023;-72
2021/03/24 00:18:14;;;;;;;22.30;10.57;;;;;;;18.87;43.88;100395.31;2050780;28;20023;-72
2021/03/24 00:19:15;;;;;;;24.60;12.60;;;;;;;18.87;43.94;100397.19;2056909;28;20026;-72
2021/03/24 00:20:18;;;;;;;23.63;11.37;;;;;;;18.88;43.84;100393.44;2055322;28;20097;-72
2021/03/24 00:21:18;;;;;;;24.60;11.65;;;;;;;18.87;44.11;100394.44;2049416;28;20521;-72
2021/03/24 00:22:19;;;;;;;27.13;12.03;;;;;;;18.87;44.00;100391.72;2054182;28;20374;-71
2021/03/24 00:23:20;;;;;;;21.47;10.90;;;;;;;18.85;44.01;100392.69;2057052;28;20027;-72
2021/03/24 00:24:20;;;;;;;23.47;9.97;;;;;;;18.85;43.97;100394.56;2057037;28;20027;-72
2021/03/24 00:25:21;;;;;;;25.47;12.50;;;;;;;18.85;44.08;100395.44;2057188;28;20034;-72
2021/03/24 00:26:22;;;;;;;21.65;11.05;;;;;;;18.85;44.10;100394.56;2057057;28;20031;-72
2021/03/24 00:27:22;;;;;;;22.50;11.07;;;;;;;18.83;44.23;100400.16;2056479;28;20054;-72
2021/03/24 00:28:23;;;;;;;27.27;11.93;;;;;;;18.83;44.08;100389.25;2056427;28;20406;-72
2021/03/24 00:29:23;;;;;;;23.00;11.37;;;;;;;18.83;44.19;100391.97;2056278;28;20030;-72
2021/03/24 00:30:32;;;;;;;23.83;11.03;;;;;;;18.84;43.99;100399.19;2057017;28;20054;-71
2021/03/24 00:31:32;;;;;;;21.75;11.23;;;;;;;18.83;44.11;100394.72;2057594;28;20069;-72
2021/03/24 00:32:33;;;;;;;21.27;10.73;;;;;;;18.84;44.09;100392.88;2057917;28;20426;-72
2021/03/24 00:33:33;;;;;;;24.50;11.87;;;;;;;18.84;44.16;100392.88;2058044;28;20391;-71
2021/03/24 00:34:34;;;;;;;21.63;10.47;;;;;;;18.84;43.97;100385.53;2058639;28;20065;-71
2021/03/24 00:35:34;;;;;;;23.07;10.57;;;;;;;18.85;44.14;100384.50;2058047;28;20069;-72
2021/03/24 00:36:35;;;;;;;23.70;11.13;;;;;;;18.85;43.94;100389.97;2050976;29;20074;-72
2021/03/24 00:37:35;;;;;;;19.27;10.63;;;;;;;18.85;43.96;100389.97;2050733;28;20027;-71
2021/03/24 00:38:36;;;;;;;22.20;10.83;;;;;;;18.84;44.04;100388.25;2050743;28;20125;-71
2021/03/24 00:39:36;;;;;;;23.77;11.00;;;;;;;18.85;44.22;100383.66;2057105;28;20374;-71
2021/03/24 00:40:40;;;;;;;19.27;9.83;;;;;;;18.85;44.14;100395.44;2058816;28;20077;-71
2021/03/24 00:41:40;;;;;;;20.58;11.75;;;;;;;18.87;44.25;100391.72;2058602;28;20105;-71
2021/03/24 00:42:40;;;;;;;19.00;10.57;;;;;;;18.87;44.35;100391.72;2058757;28;20099;-72
2021/03/24 00:43:41;;;;;;;22.57;11.67;;;;;;;18.87;44.29;100399.91;2058815;28;20058;-71
2021/03/24 00:44:41;;;;;;;21.80;11.20;;;;;;;18.87;44.31;100389.00;2056063;28;20019;-71
2021/03/24 00:45:42;;;;;;;23.03;10.90;;;;;;;18.87;44.27;100391.72;2050589;28;20023;-71
2021/03/24 00:46:43;;;;;;;21.52;10.40;;;;;;;18.87;44.22;100392.56;2055588;28;20038;-71
2021/03/24 00:47:43;;;;;;;21.27;10.33;;;;;;;18.87;44.34;100384.38;2058405;28;20034;-72
2021/03/24 00:48:44;;;;;;;20.47;10.37;;;;;;;18.87;44.27;100387.13;2057867;28;20022;-71
2021/03/24 00:49:45;;;;;;;19.63;9.83;;;;;;;18.88;44.13;100387.97;2058352;28;20023;-71
2021/03/24 00:50:46;;;;;;;18.40;10.27;;;;;;;18.88;44.02;100383.38;2058729;28;20480;-72
2021/03/24 00:51:46;;;;;;;22.33;11.30;;;;;;;18.87;44.29;100381.66;2058681;28;20027;-71
2021/03/24 00:52:47;;;;;;;18.17;9.50;;;;;;;18.88;44.03;100387.97;2058516;28;20023;-72
2021/03/24 00:53:47;;;;;;;21.10;10.37;;;;;;;18.88;44.17;100393.44;2058621;28;20127;-72
2021/03/24 00:54:48;;;;;;;22.93;11.27;;;;;;;18.87;44.11;100387.13;2058600;28;20038;-71
2021/03/24 00:55:49;;;;;;;22.47;10.97;;;;;;;18.87;43.92;100391.72;2058658;28;20101;-71
2021/03/24 00:56:49;;;;;;;19.73;10.63;;;;;;;18.88;44.18;100387.97;2058568;28;20445;-71
2021/03/24 00:57:50;;;;;;;24.57;11.67;;;;;;;18.89;43.96;100389.69;2058510;28;20034;-71
2021/03/24 00:58:51;;;;;;;19.03;10.80;;;;;;;18.88;44.09;100393.44;2058615;28;20094;-71
2021/03/24 00:59:52;;;;;;;19.80;10.63;;;;;;;18.88;44.03;100390.69;2057112;28;20097;-71
2021/03/24 01:00:52;;;;;;;22.13;10.52;;;;;;;18.88;43.96;100390.69;2050509;28;20070;-72
2021/03/24 01:01:53;;;;;;;19.90;10.10;;;;;;;18.87;44.14;100387.13;2050781;28;20560;-72
2021/03/24 01:02:53;;;;;;;23.20;10.97;;;;;;;18.86;44.15;100382.63;2050812;28;20445;-71
2021/03/24 01:03:54;;;;;;;23.70;11.93;;;;;;;18.87;44.19;100389.00;2050491;28;20023;-72
2021/03/24 01:04:54;;;;;;;23.13;10.90;;;;;;;18.86;43.86;100385.38;2050418;28;20483;-71
2021/03/24 01:05:55;;;;;;;21.17;9.87;;;;;;;18.85;43.95;100384.50;2051947;28;20431;-72
2021/03/24 01:06:55;;;;;;;21.70;10.23;;;;;;;18.87;44.10;100389.00;2058656;28;20141;-71
2021/03/24 01:08:00;;;;;;;20.27;10.83;;;;;;;18.84;44.06;100382.81;2058570;28;20194;-71
2021/03/24 01:09:00;;;;;;;19.38;9.80;;;;;;;18.85;44.01;100384.50;2058330;28;20022;-71
2021/03/24 01:10:00;;;;;;;20.17;9.57;;;;;;;18.84;43.97;100388.25;2058486;28;20015;-72
2021/03/24 01:11:02;;;;;;;18.60;10.27;;;;;;;18.84;44.13;100382.81;2058359;28;20054;-71
2021/03/24 01:12:04;;;;;;;19.73;9.90;;;;;;;18.84;44.07;100385.53;2058452;28;20513;-71
2021/03/24 01:13:05;;;;;;;18.45;10.27;;;;;;;18.85;44.01;100378.19;2058357;28;20033;-71
2021/03/24 01:14:08;;;;;;;19.80;10.05;;;;;;;18.85;43.97;100384.50;2058599;28;20109;-71
2021/03/24 01:15:09;;;;;;;22.13;10.75;;;;;;;18.84;43.97;100384.66;2064216;28;20026;-71
2021/03/24 01:16:10;;;;;;;22.23;10.82;;;;;;;18.83;43.98;100383.78;2050588;28;20054;-71
2021/03/24 01:17:10;;;;;;;21.13;10.00;;;;;;;18.84;43.99;100388.25;2053553;28;20473;-72
2021/03/24 01:18:12;;;;;;;19.10;9.90;;;;;;;18.84;44.07;100392.88;2058334;28;20026;-71
2021/03/24 01:19:12;;;;;;;21.85;10.18;;;;;;;18.82;44.03;100384.81;2053546;28;20031;-72
2021/03/24 01:20:14;;;;;;;18.50;9.63;;;;;;;18.82;44.33;100384.81;2050600;28;20027;-72
2021/03/24 01:21:15;;;;;;;17.42;9.55;;;;;;;18.82;44.24;100384.81;2057916;28;20398;-72
2021/03/24 01:22:15;;;;;;;19.23;10.10;;;;;;;18.83;44.00;100385.66;2058368;28;20385;-71
2021/03/24 01:23:16;;;;;;;16.90;8.93;;;;;;;18.82;44.24;100381.22;2058426;28;20014;-71
2021/03/24 01:24:16;;;;;;;18.13;9.57;;;;;;;18.81;44.10;100376.75;2052710;28;20038;-71
2021/03/24 01:25:17;;;;;;;18.07;9.77;;;;;;;18.82;44.01;100383.94;2050412;28;20027;-71
2021/03/24 01:26:19;;;;;;;16.58;9.23;;;;;;;18.81;44.13;100383.09;2053448;28;20026;-71
2021/03/24 01:27:20;;;;;;;19.58;9.95;;;;;;;18.82;44.21;100383.94;2058082;28;20122;-71
2021/03/24 01:28:24;;;;;;;18.53;9.50;;;;;;;18.82;44.03;100390.25;2058173;28;20051;-71
2021/03/24 01:29:24;;;;;;;18.20;9.40;;;;;;;18.80;44.23;100389.53;2058190;28;20494;-72
2021/03/24 01:30:30;;;;;;;21.03;9.37;;;;;;;18.79;43.92;100390.56;2058135;28;20167;-71
2021/03/24 01:31:31;;;;;;;20.73;10.10;;;;;;;18.80;44.09;100385.94;2050525;29;20042;-72
2021/03/24 01:32:32;;;;;;;17.30;9.10;;;;;;;18.79;44.24;100387.81;2050532;28;20062;-71
2021/03/24 01:33:32;;;;;;;16.73;9.67;;;;;;;18.79;44.09;100385.09;2058238;28;20033;-71
2021/03/24 01:34:32;;;;;;;15.90;8.27;;;;;;;18.78;44.24;100394.28;2058572;28;20058;-72
2021/03/24 01:35:33;;;;;;;17.07;10.03;;;;;;;18.78;44.01;100386.06;2058287;28;20030;-71
2021/03/24 01:36:33;;;;;;;22.77;10.37;;;;;;;18.77;44.17;100384.38;2058186;28;20038;-71
2021/03/24 01:37:37;;;;;;;18.97;9.47;;;;;;;18.78;44.19;100387.94;2053806;28;20402;-71
2021/03/24 01:38:39;;;;;;;21.55;10.45;;;;;;;18.79;44.34;100384.19;2056638;28;20023;-72
2021/03/24 01:39:40;;;;;;;15.82;9.20;;;;;;;18.78;44.27;100386.06;2056300;28;20054;-71
2021/03/24 01:40:47;;;;;;;16.77;9.23;;;;;;;18.77;44.21;100387.09;2058018;28;20041;-71
2021/03/24 01:41:47;;;;;;;17.05;9.02;;;;;;;18.78;44.25;100382.50;2058054;28;20035;-71
2021/03/24 01:42:48;;;;;;;16.47;8.70;;;;;;;18.78;44.13;100386.06;2053446;28;20051;-71
2021/03/24 01:43:48;;;;;;;18.50;9.47;;;;;;;18.77;44.18;100387.09;2051884;28;20031;-71
2021/03/24 01:45:14;;;;;;;20.37;9.70;;;;;;;18.77;44.32;100387.09;2058559;28;20105;-71
2021/03/24 01:46:17;;;;;;;16.52;9.25;;;;;;;18.78;44.25;100380.63;2058415;28;20042;-71
2021/03/24 01:47:18;;;;;;;19.45;9.57;;;;;;;18.79;43.95;100384.19;2057257;28;20062;-71
2021/03/24 01:48:19;;;;;;;18.63;9.67;;;;;;;18.78;44.12;100386.06;2055753;28;20088;-71
2021/03/24 01:49:39;;;;;;;20.10;9.65;;;;;;;18.78;44.37;100388.81;2050162;28;20351;-71
2021/03/24 01:50:40;;;;;;;19.67;9.48;;;;;;;18.78;44.49;100380.63;2050185;28;20031;-71
2021/03/24 01:51:55;;;;;;;19.37;9.60;;;;;;;18.76;44.49;100385.34;2050405;28;20019;-72
2021/03/24 01:52:56;;;;;;;17.13;9.45;;;;;;;18.76;44.67;100390.81;2049408;28;20038;-71
2021/03/24 01:53:56;;;;;;;19.53;9.97;;;;;;;18.77;44.40;100383.50;2057666;28;20038;-71
2021/03/24 01:54:58;;;;;;;16.93;9.23;;;;;;;18.76;44.63;100382.63;2058082;28;20519;-71
2021/03/24 01:55:58;;;;;;;16.33;8.88;;;;;;;18.78;44.49;100382.50;2058056;28;20466;-71
2021/03/24 01:57:06;;;;;;;16.77;9.50;;;;;;;18.77;44.50;100381.63;2056534;28;20483;-71
2021/03/24 01:58:07;;;;;;;21.40;9.60;;;;;;;18.78;44.51;100382.50;2050140;28;20019;-72
2021/03/24 01:59:08;;;;;;;19.30;9.27;;;;;;;18.77;44.38;100373.44;2053715;28;20466;-72
2021/03/24 02:00:14;;;;;;;17.73;8.43;;;;;;;18.78;44.57;100380.63;2058412;28;20031;-72
2021/03/24 02:01:17;;;;;;;14.88;8.68;;;;;;;18.79;44.22;100376.00;2059244;28;20035;-71
2021/03/24 02:02:39;;;;;;;18.15;9.55;;;;;;;18.80;44.17;100386.81;2056230;28;20033;-71
2021/03/24 02:03:40;;;;;;;16.92;8.68;;;;;;;18.79;44.23;100382.38;2057617;28;20118;-71
2021/03/24 02:04:40;;;;;;;17.50;9.50;;;;;;;18.80;44.26;100384.06;2058144;28;20035;-71
2021/03/24 02:05:44;;;;;;;20.73;10.47;;;;;;;18.80;44.22;100380.50;2057964;28;20027;-71
2021/03/24 02:07:01;;;;;;;15.57;8.77;;;;;;;18.79;44.15;100379.63;2057940;28;20109;-72
2021/03/24 02:08:07;;;;;;;16.38;8.40;;;;;;;18.79;44.19;100378.75;2051489;28;20417;-71
2021/03/24 02:09:17;;;;;;;17.85;8.32;;;;;;;18.79;44.10;100374.16;2056893;28;20085;-72
2021/03/24 02:10:30;;;;;;;17.08;8.93;;;;;;;18.78;44.02;100375.16;2058082;28;20101;-71
2021/03/24 02:12:13;;;;;;;18.55;8.38;;;;;;;18.77;44.40;100370.72;2058198;28;20105;-71
2021/03/24 02:13:16;;;;;;;15.93;9.02;;;;;;;18.78;44.35;100380.63;2039600;29;20107;-72
2021/03/24 02:14:28;;;;;;;15.13;8.23;;;;;;;18.77;44.33;100373.44;2035345;29;20539;-71
2021/03/24 02:15:33;;;;;;;14.77;8.38;;;;;;;18.77;44.20;100376.16;2041276;29;20428;-71
2021/03/24 02:16:41;;;;;;;17.27;8.98;;;;;;;18.77;43.99;100376.16;2040942;29;20039;-71
2021/03/24 02:17:43;;;;;;;17.27;8.82;;;;;;;18.77;44.25;100378.91;2032908;29;20038;-71
2021/03/24 02:18:46;;;;;;;16.63;8.80;;;;;;;18.77;44.30;100381.63;2039554;29;20047;-71
2021/03/24 02:19:56;;;;;;;19.80;9.05;;;;;;;18.76;44.09;100379.88;2056986;28;20027;-72
2021/03/24 02:21:01;;;;;;;15.88;8.57;;;;;;;18.76;44.38;100379.88;2058075;28;20026;-71
2021/03/24 02:22:02;;;;;;;15.45;8.75;;;;;;;18.76;44.35;100385.34;2057816;28;20022;-71
2021/03/24 02:23:14;;;;;;;16.42;8.27;;;;;;;18.78;44.35;100387.94;2057263;28;20527;-71
2021/03/24 02:24:32;;;;;;;18.27;9.02;;;;;;;18.76;44.14;100385.34;2057460;28;20050;-71
2021/03/24 02:25:42;;;;;;;17.23;9.05;;;;;;;18.76;44.36;100385.34;2057888;28;20030;-72
2021/03/24 02:26:48;;;;;;;19.73;10.00;;;;;;;18.76;44.11;100395.41;2057805;28;20065;-71
2021/03/24 02:27:54;;;;;;;16.58;9.38;;;;;;;18.77;44.29;100392.56;2058606;28;20053;-71
2021/03/24 02:28:57;;;;;;;14.40;7.82;;;;;;;18.76;44.38;100396.28;2057333;28;20095;-71
2021/03/24 02:30:22;;;;;;;15.32;8.23;;;;;;;18.75;44.44;100389.06;2056493;28;20402;-72
2021/03/24 02:31:25;;;;;;;15.00;8.63;;;;;;;18.76;44.23;100389.94;2054214;28;20023;-72
2021/03/24 02:32:28;;;;;;;15.73;8.48;;;;;;;18.74;44.10;100386.47;2057043;28;20026;-71
2021/03/24 02:33:39;;;;;;;15.25;8.88;;;;;;;18.73;44.11;100385.59;2057067;28;20125;-71
2021/03/24 02:34:42;;;;;;;14.13;8.68;;;;;;;18.73;44.22;100385.59;2051779;28;20133;-71
2021/03/24 02:35:49;;;;;;;14.93;8.68;;;;;;;18.73;44.20;100388.34;2057850;28;20065;-72
2021/03/24 02:36:52;;;;;;;14.60;8.02;;;;;;;18.73;44.25;100380.16;2056165;28;20022;-71
2021/03/24 02:37:55;;;;;;;15.40;8.80;;;;;;;18.74;44.36;100387.34;2057564;28;20019;-72
2021/03/24 02:39:00;;;;;;;16.40;9.23;;;;;;;18.73;44.22;100384.75;2050643;28;20038;-71
2021/03/24 02:40:05;;;;;;;18.02;8.38;;;;;;;18.74;44.10;100381.00;2049727;29;20031;-71
2021/03/24 02:41:06;;;;;;;15.63;8.57;;;;;;;18.73;44.13;100385.59;2051574;28;20027;-72
2021/03/24 02:42:08;;;;;;;13.77;7.97;;;;;;;18.71;44.50;100373.97;2057738;28;20019;-71
2021/03/24 02:43:09;;;;;;;16.30;8.40;;;;;;;18.72;44.31;100383.91;2057741;28;20111;-72
2021/03/24 02:44:11;;;;;;;13.32;7.88;;;;;;;18.72;44.27;100375.69;2057620;28;20033;-72
2021/03/24 02:45:15;;;;;;;18.08;9.25;;;;;;;18.71;44.31;100378.56;2056164;28;20062;-71
2021/03/24 02:46:16;;;;;;;13.18;7.25;;;;;;;18.71;44.39;100376.69;2058114;28;20105;-71
2021/03/24 02:47:17;;;;;;;14.07;8.40;;;;;;;18.70;44.40;100369.50;2057815;28;20023;-71
2021/03/24 02:48:28;;;;;;;16.70;8.25;;;;;;;18.69;44.45;100370.53;2057669;28;20106;-72
2021/03/24 02:49:31;;;;;;;14.07;8.23;;;;;;;18.69;44.43;100366.91;2058008;28;20069;-71
2021/03/24 02:50:32;;;;;;;16.35;8.48;;;;;;;18.69;44.25;100372.38;2049944;28;20439;-71
2021/03/24 02:51:33;;;;;;;16.70;8.25;;;;;;;18.71;44.21;100373.09;2055439;28;20034;-71
2021/03/24 02:52:35;;;;;;;18.30;8.63;;;;;;;18.71;44.44;100365.75;2057182;28;20490;-71
2021/03/24 02:53:38;;;;;;;18.58;7.97;;;;;;;18.71;44.37;100371.22;2049777;28;20059;-71
2021/03/24 02:54:45;;;;;;;15.65;8.63;;;;;;;18.71;44.31;100368.50;2053598;28;20390;-71
2021/03/24 02:55:45;;;;;;;13.85;7.70;;;;;;;18.72;44.19;100367.50;2057656;28;20038;-72
2021/03/24 02:56:47;;;;;;;14.73;8.90;;;;;;;18.73;44.27;100362.91;2057875;28;20031;-72
2021/03/24 02:57:48;;;;;;;12.88;8.23;;;;;;;18.71;44.23;100368.50;2057475;28;20018;-71
2021/03/24 02:58:51;;;;;;;16.50;8.65;;;;;;;18.71;44.31;100365.75;2057498;28;20030;-71
2021/03/24 02:59:52;;;;;;;13.60;8.40;;;;;;;18.70;44.61;100358.59;2057612;28;20073;-72
2021/03/24 03:00:54;;;;;;;14.77;7.97;;;;;;;18.71;44.62;100357.56;2056043;28;20076;-72
2021/03/24 03:02:03;;;;;;;15.43;8.48;;;;;;;18.71;44.61;100362.19;2051274;28;20277;-72
2021/03/24 03:03:11;;;;;;;14.98;9.02;;;;;;;18.69;44.74;100351.41;2057844;28;20027;-72
2021/03/24 03:04:19;;;;;;;14.07;8.15;;;;;;;18.69;44.71;100354.16;2057302;28;20045;-72
2021/03/24 03:05:28;;;;;;;15.65;8.50;;;;;;;18.69;44.76;100356.88;2057695;28;20058;-72
2021/03/24 03:06:29;;;;;;;16.98;8.48;;;;;;;18.71;44.74;100348.53;2057674;28;20490;-72
2021/03/24 03:07:32;;;;;;;14.77;7.40;;;;;;;18.70;44.70;100358.59;2057594;28;20031;-71
2021/03/24 03:08:39;;;;;;;12.90;6.90;;;;;;;18.72;44.52;100345.66;2057751;28;20048;-72
2021/03/24 03:09:49;;;;;;;16.75;7.93;;;;;;;18.72;44.68;100350.28;2057997;28;20497;-71
2021/03/24 03:11:19;;;;;;;16.02;8.50;;;;;;;18.72;44.58;100350.28;2065575;28;20033;-72
2021/03/24 03:12:23;;;;;;;13.30;7.40;;;;;;;18.73;44.67;100351.97;2065915;28;20026;-72
2021/03/24 03:14:03;;;;;;;12.30;7.07;;;;;;;18.71;44.40;100357.56;2065571;28;20030;-72
2021/03/24 03:15:13;;;;;;;14.30;7.93;;;;;;;18.71;44.46;100354.84;2057723;28;20045;-71
2021/03/24 03:16:41;;;;;;;14.50;7.63;;;;;;;18.72;44.36;100362.03;2057639;28;20500;-71
2021/03/24 03:17:49;;;;;;;12.75;7.20;;;;;;;18.72;44.38;100353.84;2057618;28;20018;-71
2021/03/24 03:19:08;;;;;;;15.00;8.40;;;;;;;18.72;44.38;100355.72;2057475;28;20500;-71
2021/03/24 03:20:14;;;;;;;14.45;8.25;;;;;;;18.72;44.10;100356.59;2057507;28;20022;-71
2021/03/24 03:21:20;;;;;;;14.40;8.10;;;;;;;18.72;44.47;100356.59;2057397;28;20018;-71
2021/03/24 03:22:31;;;;;;;14.43;8.65;;;;;;;18.71;44.22;100360.31;2057790;28;20041;-71
2021/03/24 03:23:34;;;;;;;15.60;7.72;;;;;;;18.71;44.31;100360.31;2057283;28;20493;-72
2021/03/24 03:24:46;;;;;;;13.48;6.55;;;;;;;18.71;44.22;100360.31;2057486;28;20046;-71
2021/03/24 03:25:57;;;;;;;14.20;7.25;;;;;;;18.71;44.49;100362.19;2049582;28;20034;-71
2021/03/24 03:27:01;;;;;;;14.20;7.22;;;;;;;18.70;44.31;100360.47;2049315;28;20059;-71
2021/03/24 03:28:07;;;;;;;13.52;8.10;;;;;;;18.69;44.51;100362.34;2049245;28;20466;-72
2021/03/24 03:29:14;;;;;;;14.75;7.88;;;;;;;18.71;44.39;100362.19;2049355;28;20027;-72
2021/03/24 03:30:17;;;;;;;12.23;7.30;;;;;;;18.70;44.29;100363.19;2049884;28;20070;-72
2021/03/24 03:31:22;;;;;;;10.80;6.57;;;;;;;18.70;44.46;100355.00;2049396;28;20034;-72
2021/03/24 03:32:24;;;;;;;19.98;8.68;;;;;;;18.70;44.37;100355.84;2051878;28;20035;-71
2021/03/24 03:33:30;;;;;;;11.20;7.47;;;;;;;18.69;44.24;100359.59;2057414;28;20026;-72
2021/03/24 03:34:33;;;;;;;10.30;6.80;;;;;;;18.70;44.25;100363.19;2057571;28;20034;-71
2021/03/24 03:35:36;;;;;;;11.02;7.25;;;;;;;18.69;44.29;100359.59;2057256;28;20060;-72
2021/03/24 03:36:40;;;;;;;13.57;7.88;;;;;;;18.67;44.52;100356.16;2057496;28;20105;-72
2021/03/24 03:37:41;;;;;;;15.52;8.43;;;;;;;18.68;44.33;100355.13;2056983;28;20065;-71
2021/03/24 03:38:44;;;;;;;12.07;8.00;;;;;;;18.68;44.42;100366.06;2057417;28;20023;-71
2021/03/24 03:39:47;;;;;;;11.70;6.88;;;;;;;18.68;44.41;100368.78;2054824;28;20022;-71
2021/03/24 03:40:48;;;;;;;12.48;6.88;;;;;;;18.68;44.17;100366.06;2049525;28;20462;-72
2021/03/24 03:41:52;;;;;;;13.57;7.53;;;;;;;18.68;44.31;100357.84;2049595;28;20023;-71
2021/03/24 03:42:53;;;;;;;14.75;6.90;;;;;;;18.67;44.26;100353.41;2049234;28;20212;-71
2021/03/24 03:43:55;;;;;;;11.65;7.47;;;;;;;18.69;44.19;100361.44;2057046;28;20042;-71
2021/03/24 03:44:56;;;;;;;11.80;7.30;;;;;;;18.68;44.24;100359.72;2057480;28;20035;-71
2021/03/24 03:46:01;;;;;;;11.40;7.43;;;;;;;18.67;44.21;100355.25;2057386;28;20035;-72
2021/03/24 03:47:10;;;;;;;14.30;6.82;;;;;;;18.67;44.53;100364.34;2057524;28;20030;-72
2021/03/24 03:48:13;;;;;;;13.95;7.57;;;;;;;18.67;44.40;100367.06;2057163;28;20035;-71
2021/03/24 03:49:13;;;;;;;11.40;7.00;;;;;;;18.68;44.40;100365.19;2057316;28;20067;-71
2021/03/24 03:50:20;;;;;;;11.00;7.23;;;;;;;18.66;44.25;100359.88;2057239;28;20065;-71
2021/03/24 03:51:41;;;;;;;10.68;6.45;;;;;;;18.66;44.56;100367.19;2056607;28;20561;-72
2021/03/24 03:53:36;;;;;;;13.50;7.13;;;;;;;18.64;44.34;100364.59;2049411;28;20062;-72
2021/03/24 03:54:43;;;;;;;12.38;7.38;;;;;;;18.66;44.32;100368.06;2039974;29;20050;-71
2021/03/24 03:56:01;;;;;;;12.27;7.05;;;;;;;18.66;44.54;100362.59;2040320;29;20027;-71
2021/03/24 03:57:19;;;;;;;11.15;7.45;;;;;;;18.66;44.51;100368.06;2048353;28;20042;-71
2021/03/24 03:58:44;;;;;;;13.35;6.72;;;;;;;18.65;44.61;100366.34;2057194;28;20112;-71
2021/03/24 03:59:52;;;;;;;13.15;7.25;;;;;;;18.66;44.63;100367.19;2057314;28;20019;-72
2021/03/24 04:01:06;;;;;;;12.05;7.03;;;;;;;18.65;44.76;100366.34;2049926;28;20054;-72
2021/03/24 04:02:13;;;;;;;12.30;7.22;;;;;;;18.66;44.75;100367.19;2054608;28;20026;-71
2021/03/24 04:03:17;;;;;;;13.02;6.63;;;;;;;18.66;44.65;100361.75;2057134;28;20347;-71
2021/03/24 04:04:26;;;;;;;12.52;7.28;;;;;;;18.66;44.62;100359.00;2050248;28;20061;-71
2021/03/24 04:05:36;;;;;;;10.50;6.78;;;;;;;18.66;44.56;100362.59;2051642;28;20129;-71
2021/03/24 04:06:50;;;;;;;12.18;7.03;;;;;;;18.66;44.68;100362.59;2056775;28;20519;-72
2021/03/24 04:07:56;;;;;;;14.02;7.93;;;;;;;18.66;44.75;100368.06;2057077;28;20426;-71
2021/03/24 04:08:58;;;;;;;11.00;6.60;;;;;;;18.67;44.81;100358.88;2057232;28;20394;-71
2021/03/24 04:10:01;;;;;;;12.90;7.47;;;;;;;18.67;44.67;100364.34;2057095;28;20469;-71
2021/03/24 04:11:06;;;;;;;17.23;7.63;;;;;;;18.67;44.71;100358.88;2057118;28;20026;-71
2021/03/24 04:12:17;;;;;;;12.02;7.13;;;;;;;18.68;44.65;100359.72;2057171;28;20026;-71
2021/03/24 04:13:20;;;;;;;14.90;7.38;;;;;;;18.67;44.72;100360.72;2056394;28;20028;-72
2021/03/24 04:14:24;;;;;;;11.85;6.53;;;;;;;18.68;44.48;100368.78;2048775;28;20075;-71
2021/03/24 04:15:24;;;;;;;12.80;6.93;;;;;;;18.68;44.47;100368.78;2056492;28;20057;-71
2021/03/24 04:16:27;;;;;;;10.23;7.10;;;;;;;18.68;44.41;100371.50;2057172;28;20073;-72
2021/03/24 04:17:35;;;;;;;11.10;6.55;;;;;;;18.69;44.37;100373.25;2057041;28;20027;-72
2021/03/24 04:18:45;;;;;;;11.07;6.82;;;;;;;18.69;44.38;100367.78;2057110;28;20063;-71
2021/03/24 04:19:50;;;;;;;12.18;7.00;;;;;;;18.69;44.39;100367.78;2049143;28;20473;-71
2021/03/24 04:20:52;;;;;;;11.32;6.50;;;;;;;18.68;44.33;100366.06;2049272;28;20034;-71
2021/03/24 04:21:58;;;;;;;11.90;7.30;;;;;;;18.68;44.21;100365.19;2049183;28;20023;-71
2021/03/24 04:23:01;;;;;;;11.85;7.15;;;;;;;18.68;44.38;100368.78;2056289;28;20062;-71
2021/03/24 04:24:09;;;;;;;11.48;6.82;;;;;;;18.70;44.29;100368.66;2057057;28;20045;-71
2021/03/24 04:25:14;;;;;;;13.57;7.30;;;;;;;18.68;44.27;100368.78;2057282;28;20039;-71
2021/03/24 04:26:32;;;;;;;11.98;8.02;;;;;;;18.68;44.46;100365.19;2054769;28;20037;-71
2021/03/24 04:27:36;;;;;;;11.40;7.15;;;;;;;18.67;44.40;100367.06;2049427;28;20102;-71
2021/03/24 04:28:41;;;;;;;10.65;7.00;;;;;;;18.68;44.38;100365.19;2050037;28;20130;-71
2021/03/24 04:30:09;;;;;;;9.95;6.75;;;;;;;18.66;44.69;100368.06;2057107;28;20058;-71
2021/03/24 04:31:13;;;;;;;11.93;6.30;;;;;;;18.65;44.40;100360.88;2055424;28;20042;-72
2021/03/24 04:32:14;;;;;;;10.45;6.78;;;;;;;18.65;44.42;100363.63;2056783;28;20107;-71
2021/03/24 04:33:14;;;;;;;11.98;6.30;;;;;;;18.65;44.44;100371.81;2056307;28;20500;-71
2021/03/24 04:34:16;;;;;;;10.83;6.80;;;;;;;18.65;44.44;100366.34;2056987;28;20074;-71
2021/03/24 04:35:20;;;;;;;14.15;6.95;;;;;;;18.64;44.39;100370.06;2057003;28;20023;-72
2021/03/24 04:36:30;;;;;;;11.25;6.35;;;;;;;18.64;44.25;100365.50;2056995;28;20023;-71
2021/03/24 04:37:50;;;;;;;12.15;6.50;;;;;;;18.64;44.58;100364.59;2057113;28;20034;-71
2021/03/24 04:38:57;;;;;;;11.82;7.05;;;;;;;18.63;44.43;100371.06;2057002;28;20027;-71
2021/03/24 04:40:04;;;;;;;9.63;5.93;;;;;;;18.64;44.51;100367.31;2056957;28;20462;-71
2021/03/24 04:41:09;;;;;;;12.70;7.10;;;;;;;18.63;44.37;100368.34;2056333;28;20069;-71
2021/03/24 04:42:18;;;;;;;11.35;6.40;;;;;;;18.62;44.55;100369.38;2056462;28;20385;-71
2021/03/24 04:43:29;;;;;;;11.43;6.18;;;;;;;18.61;44.61;100370.34;2057132;28;20026;-71
2021/03/24 04:44:34;;;;;;;12.77;7.25;;;;;;;18.61;44.64;100370.34;2056964;28;20023;-71
2021/03/24 04:45:47;;;;;;;9.15;6.50;;;;;;;18.60;44.38;100374.94;2057045;28;20441;-71
2021/03/24 04:46:50;;;;;;;11.32;6.45;;;;;;;18.61;44.55;100371.19;2057037;28;20023;-71
2021/03/24 04:47:54;;;;;;;11.48;6.10;;;;;;;18.60;44.50;100368.63;2057230;28;20389;-71
2021/03/24 04:49:14;;;;;;;11.38;7.15;;;;;;;18.60;44.16;100368.63;2056891;28;20027;-71
2021/03/24 04:50:21;;;;;;;11.52;6.45;;;;;;;18.59;44.57;100366.88;2057061;28;20441;-71
2021/03/24 04:51:25;;;;;;;10.88;6.90;;;;;;;18.59;44.50;100366.88;2057154;28;20045;-72
2021/03/24 04:52:28;;;;;;;13.63;6.93;;;;;;;18.59;44.48;100366.88;2057222;28;20034;-71
2021/03/24 04:53:34;;;;;;;11.70;6.63;;;;;;;18.60;44.52;100365.91;2052279;28;20027;-71
2021/03/24 04:54:37;;;;;;;10.70;6.47;;;;;;;18.60;44.63;100368.63;2056213;28;20497;-71
2021/03/24 04:55:38;;;;;;;10.75;6.30;;;;;;;18.59;44.48;100367.78;2056467;28;20110;-71
2021/03/24 04:56:40;;;;;;;10.45;6.22;;;;;;;18.59;44.47;100367.78;2056999;28;20035;-71
2021/03/24 04:57:43;;;;;;;10.65;6.25;;;;;;;18.61;44.19;100367.63;2056934;28;20042;-71